createdAt,value
2022-08-17T00:01:51.294Z,6.40
2022-08-17T00:04:20.655Z,6.28
2022-08-17T00:06:49.473Z,6.28
2022-08-17T00:09:19.445Z,5.85
2022-08-17T00:12:34.883Z,6.18
2022-08-17T00:14:37.667Z,6.45
2022-08-17T00:17:06.686Z,5.50
2022-08-17T00:19:34.451Z,6.03
2022-08-17T00:22:32.942Z,6.40
2022-08-17T00:24:52.322Z,6.47
2022-08-17T00:27:20.348Z,6.50
2022-08-17T00:29:48.187Z,6.82
2022-08-17T00:33:13.691Z,6.25
2022-08-17T00:35:06.431Z,6.80
2022-08-17T00:37:34.553Z,6.18
2022-08-17T00:40:04.157Z,6.15
2022-08-17T00:42:32.174Z,6.30
2022-08-17T00:45:00.637Z,5.80
2022-08-17T00:47:28.371Z,6.45
2022-08-17T00:49:56.547Z,6.13
2022-08-17T00:52:28.717Z,6.43
2022-08-17T00:54:57.232Z,6.22
2022-08-17T00:57:30.709Z,6.03
2022-08-17T01:00:03.787Z,5.47
2022-08-17T01:02:43.078Z,6.07
2022-08-17T01:05:15.767Z,6.25
2022-08-17T01:07:44.561Z,7.20
2022-08-17T01:10:58.194Z,6.88
2022-08-17T01:13:04.287Z,6.35
2022-08-17T01:15:34.825Z,6.30
2022-08-17T01:18:03.037Z,6.00
2022-08-17T01:20:30.857Z,6.07
2022-08-17T01:23:12.817Z,6.22
2022-08-17T01:25:50.817Z,6.53
2022-08-17T01:28:33.424Z,6.18
2022-08-17T01:31:09.224Z,6.18
2022-08-17T01:33:37.920Z,5.75
2022-08-17T01:36:07.353Z,5.90
2022-08-17T01:38:38.563Z,6.18
2022-08-17T01:41:09.450Z,6.40
2022-08-17T01:43:43.190Z,5.88
2022-08-17T01:46:15.622Z,6.00
2022-08-17T01:48:47.694Z,5.65
2022-08-17T01:51:16.580Z,5.80
2022-08-17T01:53:49.567Z,6.05
2022-08-17T01:56:20.807Z,6.22
2022-08-17T01:58:49.207Z,6.03
2022-08-17T02:01:18.794Z,6.03
2022-08-17T02:03:59.143Z,6.10
2022-08-17T02:06:31.654Z,6.20
2022-08-17T02:09:25.512Z,6.38
2022-08-17T02:11:54.640Z,6.32
2022-08-17T02:14:23.129Z,5.82
2022-08-17T02:16:51.155Z,6.78
2022-08-17T02:19:19.835Z,6.13
2022-08-17T02:21:49.921Z,6.03
2022-08-17T02:25:00.952Z,6.30
2022-08-17T02:27:11.977Z,6.15
2022-08-17T02:29:39.993Z,6.20
2022-08-17T02:32:27.477Z,6.45
2022-08-17T02:34:57.509Z,6.30
2022-08-17T02:37:25.601Z,7.22
2022-08-17T02:39:56.819Z,7.35
2022-08-17T02:42:28.903Z,6.57
2022-08-17T02:44:56.901Z,6.88
2022-08-17T02:47:25.170Z,6.60
2022-08-17T02:49:55.536Z,7.32
2022-08-17T02:53:01.965Z,7.38
2022-08-17T02:55:16.831Z,7.10
2022-08-17T02:57:45.991Z,7.80
2022-08-17T03:00:18.045Z,7.43
2022-08-17T03:02:46.902Z,8.77
2022-08-17T03:05:18.277Z,9.05
2022-08-17T03:07:46.541Z,10.27
2022-08-17T03:10:16.506Z,9.50
2022-08-17T03:12:45.731Z,9.05
2022-08-17T03:15:16.199Z,9.02
2022-08-17T03:17:44.035Z,8.57
2022-08-17T03:20:13.767Z,8.52
2022-08-17T03:22:47.940Z,8.88
2022-08-17T03:25:30.129Z,8.50
2022-08-17T03:27:58.239Z,7.45
2022-08-17T03:30:27.200Z,7.82
2022-08-17T03:32:57.547Z,8.05
2022-08-17T03:35:28.013Z,8.23
2022-08-17T03:38:00.238Z,7.25
2022-08-17T03:40:58.107Z,6.82
2022-08-17T03:43:19.496Z,7.10
2022-08-17T03:46:04.994Z,6.93
2022-08-17T03:48:51.274Z,6.82
2022-08-17T03:51:41.311Z,7.32
2022-08-17T03:54:28.726Z,7.10
2022-08-17T03:57:06.886Z,6.55
2022-08-17T03:59:36.260Z,6.28
2022-08-17T04:02:09.328Z,7.00
2022-08-17T04:04:37.403Z,6.60
2022-08-17T04:07:05.719Z,6.40
2022-08-17T04:09:34.014Z,7.10
2022-08-17T04:12:04.759Z,7.10
2022-08-17T04:14:39.365Z,6.80
2022-08-17T04:17:21.178Z,6.25
2022-08-17T04:19:49.269Z,6.10
2022-08-17T04:22:31.938Z,6.38
2022-08-17T04:25:05.588Z,6.43
2022-08-17T04:27:34.759Z,7.60
2022-08-17T04:30:02.761Z,6.30
2022-08-17T04:33:02.297Z,6.53
2022-08-17T04:35:21.172Z,6.45
2022-08-17T04:37:49.258Z,6.50
2022-08-17T04:40:35.003Z,6.13
2022-08-17T04:45:34.128Z,6.43
2022-08-17T04:48:02.367Z,6.47
2022-08-17T04:50:30.132Z,6.80
2022-08-17T04:52:58.117Z,7.75
2022-08-17T04:55:26.222Z,6.63
2022-08-17T04:57:54.273Z,7.22
2022-08-17T05:00:25.743Z,6.55
2022-08-17T05:02:55.926Z,7.40
2022-08-17T05:05:26.271Z,6.10
2022-08-17T05:07:54.659Z,6.15
2022-08-17T05:10:22.859Z,7.40
2022-08-17T05:12:59.204Z,7.68
2022-08-17T05:15:29.764Z,7.10
2022-08-17T05:18:01.300Z,7.40
2022-08-17T05:20:29.998Z,7.32
2022-08-17T05:22:59.270Z,7.85
2022-08-17T05:25:32.752Z,8.75
2022-08-17T05:28:02.416Z,7.57
2022-08-17T05:30:31.859Z,8.77
2022-08-17T05:33:02.061Z,8.43
2022-08-17T05:35:33.534Z,9.10
2022-08-17T05:38:01.657Z,8.05
2022-08-17T05:40:32.870Z,8.55
2022-08-17T05:43:09.371Z,8.98
2022-08-17T05:45:55.873Z,9.05
2022-08-17T05:48:35.727Z,8.20
2022-08-17T05:51:17.092Z,8.75
2022-08-17T05:53:51.895Z,8.95
2022-08-17T05:56:29.475Z,7.63
2022-08-17T05:59:04.547Z,8.45
2022-08-17T06:01:42.164Z,7.68
2022-08-17T06:04:20.705Z,8.05
2022-08-17T06:06:55.143Z,8.02
2022-08-17T06:09:35.998Z,8.90
2022-08-17T06:12:21.990Z,8.77
2022-08-17T06:15:10.907Z,8.90
2022-08-17T06:17:41.091Z,8.23
2022-08-17T06:20:11.774Z,8.98
2022-08-17T06:22:47.057Z,8.65
2022-08-17T06:27:53.602Z,9.02
2022-08-17T06:30:25.085Z,9.05
2022-08-17T06:32:59.490Z,9.85
2022-08-17T06:35:35.803Z,8.17
2022-08-17T06:38:36.904Z,8.43
2022-08-17T06:43:56.225Z,8.18
2022-08-17T06:46:30.175Z,8.75
2022-08-17T06:49:12.259Z,8.88
2022-08-17T06:51:43.705Z,8.65
2022-08-17T06:54:20.663Z,8.73
2022-08-17T06:56:55.204Z,9.88
2022-08-17T06:59:54.176Z,9.15
2022-08-17T07:02:29.421Z,8.98
2022-08-17T07:05:14.178Z,8.85
2022-08-17T07:08:03.856Z,9.93
2022-08-17T07:10:39.119Z,9.52
2022-08-17T07:13:21.399Z,9.68
2022-08-17T07:15:56.811Z,10.35
2022-08-17T07:18:27.975Z,9.80
2022-08-17T07:21:04.745Z,9.50
2022-08-17T07:23:40.762Z,10.35
2022-08-17T07:26:10.117Z,10.32
2022-08-17T07:28:38.139Z,10.52
2022-08-17T07:31:06.998Z,10.10
2022-08-17T07:33:36.743Z,10.68
2022-08-17T07:36:06.350Z,9.63
2022-08-17T07:38:36.465Z,10.35
2022-08-17T07:41:07.653Z,11.40
2022-08-17T07:43:37.940Z,10.88
2022-08-17T07:46:32.644Z,10.43
2022-08-17T07:49:19.248Z,10.85
2022-08-17T07:52:24.155Z,11.35
2022-08-17T07:54:51.908Z,12.30
2022-08-17T07:57:40.810Z,11.45
2022-08-17T08:00:26.699Z,11.70
2022-08-17T08:03:26.215Z,11.07
2022-08-17T08:05:57.366Z,12.60
2022-08-17T08:08:33.753Z,12.52
2022-08-17T08:11:09.167Z,11.18
2022-08-17T08:13:42.414Z,12.77
2022-08-17T08:16:23.851Z,12.30
2022-08-17T08:18:56.804Z,21.65
2022-08-17T08:21:34.414Z,21.35
2022-08-17T08:24:17.437Z,15.75
2022-08-17T08:26:55.471Z,16.60
2022-08-17T08:29:32.667Z,16.05
2022-08-17T08:32:10.574Z,15.98
2022-08-17T08:35:01.525Z,16.83
2022-08-17T08:37:43.259Z,17.70
2022-08-17T08:40:33.813Z,19.08
2022-08-17T08:43:14.984Z,17.95
2022-08-17T08:45:51.629Z,18.63
2022-08-17T08:48:55.966Z,19.90
2022-08-17T08:51:37.309Z,20.88
2022-08-17T08:54:13.503Z,21.80
2022-08-17T08:57:19.487Z,23.50
2022-08-17T08:59:58.064Z,21.48
2022-08-17T09:02:47.424Z,21.73
2022-08-17T09:05:29.440Z,20.02
2022-08-17T09:08:06.124Z,19.88
2022-08-17T09:10:47.095Z,20.52
2022-08-17T09:13:23.348Z,20.60
2022-08-17T09:15:57.282Z,22.65
2022-08-17T09:21:22.601Z,24.00
2022-08-17T09:23:59.930Z,25.17
2022-08-17T09:26:32.347Z,25.20
2022-08-17T09:29:07.035Z,25.27
2022-08-17T09:31:48.815Z,24.83
2022-08-17T09:34:21.205Z,25.13
2022-08-17T09:36:57.173Z,27.17
2022-08-17T09:39:33.789Z,27.00
2022-08-17T09:42:07.740Z,24.23
2022-08-17T09:44:41.945Z,23.63
2022-08-17T09:47:17.194Z,21.60
2022-08-17T09:49:49.970Z,21.83
2022-08-17T09:52:22.347Z,20.48
2022-08-17T09:54:52.479Z,24.30
2022-08-17T09:57:32.136Z,23.25
2022-08-17T10:00:16.606Z,21.50
2022-08-17T10:03:08.354Z,19.50
2022-08-17T10:05:46.488Z,18.92
2022-08-17T10:08:25.560Z,18.85
2022-08-17T10:11:00.745Z,18.90
2022-08-17T10:13:37.045Z,19.33
2022-08-17T10:16:14.017Z,18.90
2022-08-17T10:18:51.738Z,19.00
2022-08-17T10:21:38.531Z,18.38
2022-08-17T10:24:31.099Z,16.63
2022-08-17T10:27:02.601Z,16.63
2022-08-17T10:29:48.974Z,14.35
2022-08-17T10:32:28.738Z,15.27
2022-08-17T10:35:25.937Z,13.88
2022-08-17T10:38:37.733Z,14.00
2022-08-17T10:41:17.969Z,12.80
2022-08-17T10:43:58.904Z,13.55
2022-08-17T10:47:04.085Z,15.02
2022-08-17T10:49:36.018Z,14.40
2022-08-17T10:52:26.961Z,13.18
2022-08-17T10:55:13.863Z,13.60
2022-08-17T10:57:44.761Z,13.30
2022-08-17T11:01:12.628Z,14.13
2022-08-17T11:03:54.721Z,14.27
2022-08-17T11:06:34.498Z,15.55
2022-08-17T11:09:25.457Z,14.85
2022-08-17T11:12:08.213Z,15.63
2022-08-17T11:14:54.286Z,14.63
2022-08-17T11:17:50.032Z,14.40
2022-08-17T11:20:56.597Z,13.18
2022-08-17T11:23:53.901Z,11.73
2022-08-17T11:26:26.915Z,10.20
2022-08-17T11:29:00.051Z,10.82
2022-08-17T11:31:38.990Z,11.07
2022-08-17T11:34:15.189Z,10.60
2022-08-17T11:37:11.038Z,10.40
2022-08-17T11:39:53.382Z,9.57
2022-08-17T11:42:38.655Z,9.18
2022-08-17T11:45:31.665Z,9.55
2022-08-17T11:48:29.196Z,9.20
2022-08-17T11:51:24.560Z,9.43
2022-08-17T11:54:31.294Z,8.63
2022-08-17T11:56:55.249Z,9.70
2022-08-17T11:59:55.241Z,10.25
2022-08-17T12:02:38.859Z,9.35
2022-08-17T12:05:42.064Z,10.02
2022-08-17T12:08:18.570Z,8.63
2022-08-17T12:11:09.765Z,8.73
2022-08-17T12:13:45.773Z,9.48
2022-08-17T12:16:16.392Z,8.23
2022-08-17T12:18:51.571Z,8.70
2022-08-17T12:23:58.524Z,9.95
2022-08-17T12:26:36.582Z,10.27
2022-08-17T12:29:38.676Z,9.63
2022-08-17T12:40:03.213Z,9.65
2022-08-17T12:42:37.244Z,9.35
2022-08-17T12:45:07.575Z,8.73
2022-08-17T12:47:37.839Z,8.77
2022-08-17T12:50:28.458Z,8.95
2022-08-17T12:53:01.898Z,9.40
2022-08-17T12:55:36.812Z,8.45
2022-08-17T12:58:13.991Z,7.30
2022-08-17T13:00:50.117Z,7.88
2022-08-17T13:03:21.148Z,7.40
2022-08-17T13:05:58.071Z,7.40
2022-08-17T13:08:29.765Z,7.43
2022-08-17T13:10:59.035Z,7.80
2022-08-17T13:13:28.501Z,8.02
2022-08-17T13:16:00.002Z,8.07
2022-08-17T13:18:41.885Z,8.65
2022-08-17T13:21:18.741Z,8.02
2022-08-17T13:23:57.031Z,7.43
2022-08-17T13:26:30.821Z,7.28
2022-08-17T13:29:00.394Z,8.07
2022-08-17T13:31:42.896Z,7.75
2022-08-17T13:34:38.705Z,8.00
2022-08-17T13:37:34.473Z,8.35
2022-08-17T13:40:25.744Z,7.75
2022-08-17T13:42:56.419Z,7.75
2022-08-17T13:45:50.712Z,7.47
2022-08-17T13:48:30.458Z,7.47
2022-08-17T13:51:18.051Z,7.20
2022-08-17T13:53:54.791Z,7.38
2022-08-17T13:56:37.877Z,6.78
2022-08-17T13:59:10.174Z,6.85
2022-08-17T14:01:40.811Z,7.28
2022-08-17T14:04:12.470Z,7.07
2022-08-17T14:06:53.197Z,6.55
2022-08-17T14:09:25.365Z,6.07
2022-08-17T14:11:55.048Z,6.53
2022-08-17T14:14:23.629Z,5.95
2022-08-17T14:16:51.835Z,6.45
2022-08-17T14:19:25.230Z,6.63
2022-08-17T14:21:56.484Z,6.40
2022-08-17T14:24:27.504Z,9.10
2022-08-17T14:26:55.932Z,11.32
2022-08-17T14:29:28.266Z,7.72
2022-08-17T14:31:57.314Z,6.80
2022-08-17T14:34:26.799Z,7.10
2022-08-17T14:36:54.660Z,6.85
2022-08-17T14:39:22.538Z,7.20
2022-08-17T14:41:50.587Z,7.15
2022-08-17T14:44:20.358Z,6.15
2022-08-17T14:46:52.314Z,6.30
2022-08-17T14:49:25.708Z,6.05
2022-08-17T14:51:58.801Z,6.63
2022-08-17T14:54:33.105Z,6.65
2022-08-17T14:57:22.184Z,6.93
2022-08-17T14:59:57.028Z,7.47
2022-08-17T15:02:29.471Z,6.78
2022-08-17T15:05:02.079Z,7.43
2022-08-17T15:07:32.517Z,6.55
2022-08-17T15:10:02.477Z,7.55
2022-08-17T15:12:34.306Z,7.15
2022-08-17T15:15:04.801Z,6.63
2022-08-17T15:17:44.519Z,6.97
2022-08-17T15:20:17.256Z,7.00
2022-08-17T15:22:51.662Z,6.50
2022-08-17T15:25:22.431Z,6.65
2022-08-17T15:27:55.655Z,7.07
2022-08-17T15:30:30.139Z,7.25
2022-08-17T15:32:59.143Z,6.93
2022-08-17T15:35:34.292Z,7.10
2022-08-17T15:38:12.018Z,6.40
2022-08-17T15:40:44.541Z,6.15
2022-08-17T15:43:16.073Z,6.35
2022-08-17T15:45:44.182Z,7.53
2022-08-17T15:48:16.497Z,7.80
2022-08-17T15:50:49.398Z,6.95
2022-08-17T15:53:23.289Z,7.15
2022-08-17T15:55:54.610Z,7.85
2022-08-17T15:58:30.070Z,6.40
2022-08-17T16:01:16.535Z,7.10
2022-08-17T16:04:04.302Z,7.22
2022-08-17T16:06:35.561Z,7.32
2022-08-17T16:09:05.145Z,7.28
2022-08-17T16:11:33.237Z,7.50
2022-08-17T16:14:01.316Z,8.10
2022-08-17T16:16:31.457Z,7.55
2022-08-17T16:18:59.441Z,8.23
2022-08-17T16:21:29.460Z,8.13
2022-08-17T16:24:02.391Z,13.73
2022-08-17T16:26:33.579Z,13.10
2022-08-17T16:29:04.931Z,13.85
2022-08-17T16:31:33.047Z,13.73
2022-08-17T16:34:17.240Z,11.27
2022-08-17T16:39:26.602Z,10.93
2022-08-17T16:41:58.279Z,13.50
2022-08-17T16:44:32.600Z,13.90
2022-08-17T16:47:02.433Z,12.02
2022-08-17T16:49:35.466Z,14.48
2022-08-17T16:52:05.601Z,17.05
2022-08-17T16:54:33.464Z,16.45
2022-08-17T16:57:05.382Z,12.60
2022-08-17T16:59:40.781Z,11.68
2022-08-17T17:02:19.856Z,11.25
2022-08-17T17:04:53.508Z,9.63
2022-08-17T17:07:45.607Z,10.23
2022-08-17T17:10:16.842Z,11.70
2022-08-17T17:13:02.071Z,12.35
2022-08-17T17:15:42.861Z,12.88
2022-08-17T17:18:14.870Z,13.93
2022-08-17T17:20:48.931Z,14.23
2022-08-17T17:23:29.249Z,14.25
2022-08-17T17:26:04.560Z,14.85
2022-08-17T17:33:48.011Z,15.93
2022-08-17T17:36:25.217Z,13.88
2022-08-17T17:38:55.916Z,14.63
2022-08-17T17:41:30.220Z,13.32
2022-08-17T17:44:03.722Z,14.80
2022-08-17T17:46:37.834Z,14.88
2022-08-17T17:49:07.091Z,14.45
2022-08-17T17:52:09.361Z,14.55
2022-08-17T17:54:44.325Z,14.18
2022-08-17T17:57:22.265Z,14.07
2022-08-17T17:59:59.613Z,15.35
2022-08-17T18:02:52.232Z,15.25
2022-08-17T18:05:38.836Z,16.85
2022-08-17T18:08:32.118Z,15.65
2022-08-17T18:11:13.492Z,16.45
2022-08-17T18:13:56.806Z,17.45
2022-08-17T18:16:32.085Z,17.80
2022-08-17T18:19:00.992Z,17.73
2022-08-17T18:21:36.180Z,17.38
2022-08-17T18:26:55.533Z,17.50
2022-08-17T18:29:45.271Z,17.13
2022-08-17T18:32:36.675Z,18.95
2022-08-17T18:35:30.771Z,17.20
2022-08-17T18:38:20.550Z,18.08
2022-08-17T18:40:59.394Z,18.63
2022-08-17T18:43:36.466Z,17.55
2022-08-17T18:46:28.569Z,18.17
2022-08-17T18:49:01.548Z,16.77
2022-08-17T18:51:40.525Z,18.42
2022-08-17T18:54:16.667Z,23.35
2022-08-17T18:59:36.944Z,22.35
2022-08-17T19:02:32.454Z,23.80
2022-08-17T19:05:13.260Z,23.30
2022-08-17T19:07:42.751Z,22.77
2022-08-17T19:10:25.137Z,23.27
2022-08-17T19:13:00.881Z,20.52
2022-08-17T19:15:42.701Z,18.13
2022-08-17T19:18:16.003Z,21.30
2022-08-17T19:20:51.727Z,18.98
2022-08-17T19:23:25.365Z,20.25
2022-08-17T19:25:58.614Z,18.48
2022-08-17T19:28:30.558Z,19.65
2022-08-17T19:31:02.805Z,18.70
2022-08-17T19:33:32.513Z,19.92
2022-08-17T19:36:08.511Z,20.25
2022-08-17T19:38:45.735Z,19.70
2022-08-17T19:41:21.819Z,18.20
2022-08-17T19:44:06.993Z,19.83
2022-08-17T19:46:49.832Z,20.83
2022-08-17T19:49:34.498Z,20.15
2022-08-17T19:52:28.935Z,20.23
2022-08-17T19:55:01.564Z,19.80
2022-08-17T19:57:42.769Z,19.00
2022-08-17T20:00:14.759Z,21.23
2022-08-17T20:02:50.587Z,20.67
2022-08-17T20:05:24.854Z,20.58
2022-08-17T20:08:02.147Z,20.13
2022-08-17T20:10:38.515Z,19.83
2022-08-17T20:13:10.996Z,20.90
2022-08-17T20:15:42.197Z,20.27
2022-08-17T20:18:18.524Z,20.30
2022-08-17T20:20:56.481Z,20.17
2022-08-17T20:23:50.463Z,20.33
2022-08-17T20:26:23.242Z,18.52
2022-08-17T20:29:11.347Z,19.27
2022-08-17T20:31:45.895Z,19.92
2022-08-17T20:34:36.803Z,20.88
2022-08-17T20:37:08.841Z,19.95
2022-08-17T20:39:42.627Z,19.83
2022-08-17T20:42:29.248Z,21.63
2022-08-17T20:44:59.201Z,21.95
2022-08-17T20:47:30.010Z,20.48
2022-08-17T20:50:03.263Z,19.40
2022-08-17T20:52:50.749Z,19.15
2022-08-17T20:55:56.088Z,20.30
2022-08-17T20:58:47.539Z,20.00
2022-08-17T21:01:24.388Z,20.35
2022-08-17T21:03:54.129Z,20.05
2022-08-17T21:06:25.480Z,18.35
2022-08-17T21:08:58.599Z,19.83
2022-08-17T21:12:03.034Z,20.83
2022-08-17T21:14:56.115Z,20.67
2022-08-17T21:17:42.107Z,21.08
2022-08-17T21:20:25.250Z,19.80
2022-08-17T21:23:21.053Z,21.25
2022-08-17T21:26:02.491Z,18.92
2022-08-17T21:29:01.344Z,19.50
2022-08-17T21:31:34.877Z,20.63
2022-08-17T21:34:31.775Z,20.52
2022-08-17T21:37:30.419Z,20.52
2022-08-17T21:40:01.087Z,19.05
2022-08-17T21:42:32.076Z,22.23
2022-08-17T21:45:10.800Z,23.13
2022-08-17T21:47:47.489Z,23.92
2022-08-17T21:50:19.659Z,23.95
2022-08-17T21:52:49.566Z,24.67
2022-08-17T21:55:23.381Z,24.75
2022-08-17T21:57:55.419Z,24.48
2022-08-17T22:00:40.794Z,22.75
2022-08-17T22:03:23.934Z,21.83
2022-08-17T22:05:51.984Z,22.60
2022-08-17T22:08:22.339Z,25.55
2022-08-17T22:10:51.529Z,24.40
2022-08-17T22:13:24.359Z,23.73
2022-08-17T22:16:15.496Z,23.13
2022-08-17T22:18:58.078Z,22.95
2022-08-17T22:21:26.485Z,22.15
2022-08-17T22:24:06.380Z,24.38
2022-08-17T22:27:01.168Z,24.85
2022-08-17T22:30:02.248Z,22.15
2022-08-17T22:32:38.794Z,22.55
2022-08-17T22:35:32.838Z,23.98
2022-08-17T22:38:32.049Z,22.85
2022-08-17T22:41:26.188Z,22.58
2022-08-17T22:43:57.432Z,21.60
2022-08-17T22:46:26.926Z,21.65
2022-08-17T22:48:59.280Z,22.73
2022-08-17T22:51:30.787Z,22.02
2022-08-17T22:54:19.170Z,22.42
2022-08-17T22:57:15.269Z,23.60
2022-08-17T22:59:50.160Z,22.35
2022-08-17T23:02:27.139Z,23.00
2022-08-17T23:05:18.870Z,22.83
2022-08-17T23:07:48.090Z,23.30
2022-08-17T23:10:16.395Z,21.10
2022-08-17T23:12:44.149Z,22.08
2022-08-17T23:15:17.442Z,21.15
2022-08-17T23:17:45.527Z,21.60
2022-08-17T23:20:17.767Z,21.88
2022-08-17T23:22:52.194Z,21.83
2022-08-17T23:25:27.231Z,22.58
2022-08-17T23:27:55.470Z,21.52
2022-08-17T23:30:25.378Z,22.50
2022-08-17T23:32:54.375Z,22.80
2022-08-17T23:35:40.489Z,22.75
2022-08-17T23:38:09.823Z,20.75
2022-08-17T23:40:39.375Z,21.52
2022-08-17T23:43:24.723Z,20.98
2022-08-17T23:45:57.430Z,20.75
2022-08-17T23:48:28.466Z,22.88
2022-08-17T23:51:09.611Z,21.15
2022-08-17T23:53:42.135Z,21.88
2022-08-17T23:56:11.262Z,21.33
2022-08-17T23:58:40.290Z,20.90
